createdAt,value
2023-01-09T00:00:33.703Z,3.25
2023-01-09T00:02:59.905Z,3.38
2023-01-09T00:05:26.126Z,3.58
2023-01-09T00:07:52.477Z,3.00
2023-01-09T00:10:18.692Z,3.30
2023-01-09T00:12:44.893Z,3.75
2023-01-09T00:15:11.180Z,3.60
2023-01-09T00:17:37.618Z,3.92
2023-01-09T00:20:03.816Z,3.30
2023-01-09T00:22:30.106Z,3.15
2023-01-09T00:24:56.685Z,3.50
2023-01-09T00:27:22.899Z,3.05
2023-01-09T00:29:49.064Z,3.33
2023-01-09T00:32:15.215Z,3.15
2023-01-09T00:34:41.490Z,2.92
2023-01-09T00:37:07.952Z,2.80
2023-01-09T00:39:34.117Z,2.38
2023-01-09T00:42:00.280Z,2.83
2023-01-09T00:44:26.436Z,2.45
2023-01-09T00:46:52.606Z,2.45
2023-01-09T00:49:18.783Z,2.38
2023-01-09T00:51:45.085Z,2.58
2023-01-09T00:54:11.221Z,2.45
2023-01-09T00:56:37.405Z,2.78
2023-01-09T00:59:03.613Z,2.72
2023-01-09T01:01:29.958Z,2.80
2023-01-09T01:03:56.211Z,2.63
2023-01-09T01:06:22.391Z,2.35
2023-01-09T01:08:48.539Z,2.50
2023-01-09T01:11:14.735Z,2.40
2023-01-09T01:13:40.934Z,2.63
2023-01-09T01:16:07.114Z,2.83
2023-01-09T01:18:33.252Z,2.85
2023-01-09T01:20:59.494Z,2.78
2023-01-09T01:23:25.625Z,2.90
2023-01-09T01:25:51.778Z,2.63
2023-01-09T01:28:18.025Z,3.13
2023-01-09T01:30:44.295Z,2.92
2023-01-09T01:33:10.512Z,2.95
2023-01-09T01:35:36.685Z,3.08
2023-01-09T01:38:02.973Z,2.85
2023-01-09T01:40:29.173Z,3.00
2023-01-09T01:42:55.324Z,3.05
2023-01-09T01:45:21.461Z,2.80
2023-01-09T01:47:47.633Z,2.47
2023-01-09T01:50:13.888Z,2.70
2023-01-09T01:52:40.057Z,2.60
2023-01-09T01:55:06.235Z,2.67
2023-01-09T01:57:32.419Z,2.63
2023-01-09T01:59:58.580Z,2.65
2023-01-09T02:02:24.971Z,2.92
2023-01-09T02:04:51.297Z,2.65
2023-01-09T02:07:17.510Z,2.30
2023-01-09T02:09:43.667Z,2.72
2023-01-09T02:12:09.836Z,2.42
2023-01-09T02:14:36.010Z,2.50
2023-01-09T02:17:02.192Z,2.22
2023-01-09T02:19:28.418Z,2.70
2023-01-09T02:21:54.596Z,3.50
2023-01-09T02:24:20.815Z,4.13
2023-01-09T02:26:46.999Z,3.60
2023-01-09T02:29:13.213Z,3.75
2023-01-09T02:31:39.415Z,3.08
2023-01-09T02:34:05.628Z,2.63
2023-01-09T02:36:31.867Z,2.70
2023-01-09T02:38:58.443Z,2.17
2023-01-09T02:41:24.639Z,2.20
2023-01-09T02:43:51.031Z,2.20
2023-01-09T02:46:17.191Z,2.20
2023-01-09T02:48:43.332Z,2.13
2023-01-09T02:51:09.524Z,2.20
2023-01-09T02:53:35.688Z,2.38
2023-01-09T02:56:01.824Z,2.28
2023-01-09T02:58:27.948Z,2.42
2023-01-09T03:00:54.293Z,2.38
2023-01-09T03:03:20.538Z,2.10
2023-01-09T03:05:46.666Z,2.47
2023-01-09T03:08:12.791Z,2.70
2023-01-09T03:10:38.932Z,2.10
2023-01-09T03:13:05.078Z,2.40
2023-01-09T03:15:31.237Z,2.60
2023-01-09T03:17:57.394Z,2.33
2023-01-09T03:20:23.524Z,2.30
2023-01-09T03:22:49.633Z,2.10
2023-01-09T03:25:15.764Z,2.30
2023-01-09T03:27:41.872Z,2.55
2023-01-09T03:30:07.998Z,2.30
2023-01-09T03:32:34.109Z,2.47
2023-01-09T03:35:00.232Z,2.45
2023-01-09T03:37:26.336Z,2.60
2023-01-09T03:39:52.464Z,2.30
2023-01-09T03:42:18.592Z,2.35
2023-01-09T03:44:44.711Z,2.30
2023-01-09T03:47:10.839Z,2.30
2023-01-09T03:49:36.966Z,2.33
2023-01-09T03:52:03.106Z,2.40
2023-01-09T03:54:29.263Z,2.65
2023-01-09T03:56:55.409Z,2.50
2023-01-09T03:59:21.542Z,2.50
2023-01-09T04:01:47.766Z,2.38
2023-01-09T04:04:13.965Z,3.00
2023-01-09T04:06:40.157Z,2.08
2023-01-09T04:09:06.271Z,1.83
2023-01-09T04:11:32.419Z,1.67
2023-01-09T04:13:58.533Z,1.30
2023-01-09T04:16:24.694Z,1.10
2023-01-09T04:18:50.986Z,1.38
2023-01-09T04:21:19.947Z,1.08
2023-01-09T04:23:46.084Z,1.30
2023-01-09T04:26:12.205Z,1.20
2023-01-09T04:28:38.340Z,1.20
2023-01-09T04:31:04.469Z,1.10
2023-01-09T04:33:30.588Z,1.45
2023-01-09T04:35:56.705Z,1.38
2023-01-09T04:38:22.836Z,1.25
2023-01-09T04:40:48.958Z,1.10
2023-01-09T04:43:15.080Z,1.17
2023-01-09T04:45:41.223Z,1.02
2023-01-09T04:48:07.389Z,1.10
2023-01-09T04:50:33.495Z,1.40
2023-01-09T04:52:59.622Z,1.10
2023-01-09T04:55:25.749Z,1.00
2023-01-09T04:57:51.866Z,1.10
2023-01-09T05:00:18.023Z,0.98
2023-01-09T05:02:44.140Z,1.10
2023-01-09T05:05:11.687Z,1.65
2023-01-09T05:07:38.113Z,0.50
2023-01-09T05:10:04.239Z,0.50
2023-01-09T05:12:30.334Z,0.30
2023-01-09T05:14:56.445Z,0.30
2023-01-09T05:17:22.542Z,0.30
2023-01-09T05:19:48.679Z,0.30
2023-01-09T05:22:14.799Z,0.20
2023-01-09T05:24:40.912Z,0.20
2023-01-09T05:27:07.074Z,0.30
2023-01-09T05:29:33.235Z,0.10
2023-01-09T05:31:59.369Z,0.10
2023-01-09T05:34:25.472Z,0.10
2023-01-09T05:36:51.626Z,0.10
2023-01-09T05:39:17.732Z,0.10
2023-01-09T05:41:43.877Z,0.10
2023-01-09T05:44:10.032Z,0.00
2023-01-09T05:46:36.159Z,0.10
2023-01-09T05:49:02.283Z,0.10
2023-01-09T05:51:28.427Z,0.13
2023-01-09T05:53:54.613Z,0.10
2023-01-09T05:56:20.750Z,0.10
2023-01-09T05:58:46.953Z,0.10
2023-01-09T06:01:13.137Z,0.10
2023-01-09T06:03:39.298Z,0.20
2023-01-09T06:06:05.408Z,0.10
2023-01-09T06:08:31.556Z,0.10
2023-01-09T06:10:57.679Z,0.10
2023-01-09T06:13:23.850Z,0.10
2023-01-09T06:15:50.037Z,0.17
2023-01-09T06:18:16.249Z,0.15
2023-01-09T06:20:42.369Z,0.10
2023-01-09T06:23:08.512Z,0.10
2023-01-09T06:25:34.616Z,0.20
2023-01-09T06:28:00.756Z,0.10
2023-01-09T06:30:26.883Z,0.10
2023-01-09T06:32:53.061Z,0.10
2023-01-09T06:35:19.165Z,0.10
2023-01-09T06:37:45.299Z,0.15
2023-01-09T06:40:11.452Z,0.10
2023-01-09T06:42:37.585Z,0.10
2023-01-09T06:45:03.740Z,0.10
2023-01-09T06:47:29.865Z,0.10
2023-01-09T06:49:56.041Z,0.10
2023-01-09T06:52:22.157Z,0.10
2023-01-09T06:54:48.297Z,0.20
2023-01-09T06:57:14.418Z,0.10
2023-01-09T06:59:40.536Z,0.10
2023-01-09T07:02:06.721Z,0.00
2023-01-09T07:04:32.885Z,0.15
2023-01-09T07:06:59.045Z,0.10
2023-01-09T07:09:25.158Z,0.10
2023-01-09T07:11:51.284Z,0.10
2023-01-09T07:14:17.400Z,0.10
2023-01-09T07:16:43.542Z,0.20
2023-01-09T07:19:09.640Z,0.10
2023-01-09T07:21:35.779Z,0.10
2023-01-09T07:24:01.905Z,0.10
2023-01-09T07:26:28.024Z,0.20
2023-01-09T07:28:54.140Z,0.10
2023-01-09T07:31:20.310Z,0.10
2023-01-09T07:33:46.484Z,0.20
2023-01-09T07:36:12.628Z,0.10
2023-01-09T07:38:38.894Z,0.10
2023-01-09T07:41:05.071Z,0.20
2023-01-09T07:43:31.331Z,0.10
2023-01-09T07:45:57.501Z,0.10
2023-01-09T07:48:23.657Z,0.10
2023-01-09T07:50:49.822Z,0.10
2023-01-09T07:53:15.959Z,0.10
2023-01-09T07:55:42.104Z,0.10
2023-01-09T07:58:08.243Z,0.10
2023-01-09T08:00:34.356Z,0.10
2023-01-09T08:03:00.522Z,0.10
2023-01-09T08:05:26.660Z,0.20
2023-01-09T08:07:52.814Z,0.10
2023-01-09T08:10:18.961Z,0.10
2023-01-09T08:12:45.112Z,0.20
2023-01-09T08:15:11.230Z,0.10
2023-01-09T08:17:37.363Z,0.20
2023-01-09T08:20:03.512Z,0.15
2023-01-09T08:22:29.640Z,0.20
2023-01-09T08:24:55.775Z,0.20
2023-01-09T08:27:21.888Z,0.15
2023-01-09T08:29:48.019Z,0.68
2023-01-09T08:32:14.133Z,0.17
2023-01-09T08:34:40.299Z,0.10
2023-01-09T08:37:06.410Z,0.20
2023-01-09T08:39:32.548Z,0.10
2023-01-09T08:41:58.657Z,0.10
2023-01-09T08:44:24.795Z,0.30
2023-01-09T08:46:50.968Z,0.10
2023-01-09T08:49:17.140Z,0.10
2023-01-09T08:51:43.252Z,0.30
2023-01-09T08:54:09.693Z,0.20
2023-01-09T08:56:35.915Z,0.28
2023-01-09T08:59:02.031Z,0.20
2023-01-09T09:01:28.274Z,0.25
2023-01-09T09:03:54.450Z,0.20
2023-01-09T09:06:20.786Z,0.28
2023-01-09T09:08:46.957Z,0.10
2023-01-09T09:11:13.165Z,0.20
2023-01-09T09:13:39.295Z,0.25
2023-01-09T09:16:05.611Z,0.20
2023-01-09T09:18:31.807Z,0.30
2023-01-09T09:20:57.980Z,0.25
2023-01-09T09:23:24.237Z,0.22
2023-01-09T09:25:50.383Z,0.20
2023-01-09T09:28:16.554Z,0.17
2023-01-09T09:30:42.659Z,0.20
2023-01-09T09:33:08.868Z,0.40
2023-01-09T09:35:35.001Z,0.20
2023-01-09T09:38:04.703Z,0.20
2023-01-09T09:40:31.220Z,0.30
2023-01-09T09:42:57.360Z,0.28
2023-01-09T09:45:23.486Z,0.30
2023-01-09T09:47:49.608Z,0.20
2023-01-09T09:50:15.780Z,0.40
2023-01-09T09:52:41.971Z,0.20
2023-01-09T09:55:08.186Z,0.20
2023-01-09T09:57:34.354Z,0.20
2023-01-09T10:00:00.493Z,0.17
2023-01-09T10:02:26.773Z,0.20
2023-01-09T10:04:52.929Z,0.20
2023-01-09T10:07:19.065Z,0.45
2023-01-09T10:09:45.288Z,0.77
2023-01-09T10:12:11.627Z,0.40
2023-01-09T10:14:37.918Z,0.22
2023-01-09T10:17:04.144Z,0.30
2023-01-09T10:19:30.386Z,0.35
2023-01-09T10:21:56.603Z,0.30
2023-01-09T10:24:22.856Z,0.40
2023-01-09T10:26:48.991Z,0.40
2023-01-09T10:29:15.152Z,0.50
2023-01-09T10:31:41.315Z,0.20
2023-01-09T10:34:07.490Z,0.40
2023-01-09T10:36:33.611Z,0.32
2023-01-09T10:38:59.795Z,0.32
2023-01-09T10:41:25.944Z,0.32
2023-01-09T10:43:52.102Z,0.65
2023-01-09T10:46:18.260Z,0.50
2023-01-09T10:48:44.409Z,0.50
2023-01-09T10:51:10.540Z,0.40
2023-01-09T10:53:36.728Z,0.40
2023-01-09T10:56:02.855Z,0.40
2023-01-09T10:58:28.983Z,0.40
2023-01-09T11:00:55.211Z,0.30
2023-01-09T11:03:21.447Z,0.30
2023-01-09T11:05:47.639Z,0.30
2023-01-09T11:08:13.779Z,0.38
2023-01-09T11:10:39.945Z,0.40
2023-01-09T11:13:06.084Z,0.93
2023-01-09T11:15:32.240Z,0.30
2023-01-09T11:17:58.361Z,0.55
2023-01-09T11:20:24.510Z,0.45
2023-01-09T11:22:50.639Z,0.60
2023-01-09T11:25:16.842Z,0.30
2023-01-09T11:27:42.960Z,0.75
2023-01-09T11:30:09.087Z,0.40
2023-01-09T11:32:35.223Z,0.40
2023-01-09T11:35:01.327Z,0.65
2023-01-09T11:37:27.456Z,0.43
2023-01-09T11:39:53.591Z,0.38
2023-01-09T11:42:19.742Z,0.40
2023-01-09T11:44:45.888Z,0.40
2023-01-09T11:47:12.021Z,0.40
2023-01-09T11:49:38.151Z,0.30
2023-01-09T11:52:04.407Z,0.30
2023-01-09T11:54:30.600Z,0.63
2023-01-09T11:56:56.729Z,0.32
2023-01-09T11:59:22.852Z,0.50
2023-01-09T12:01:49.009Z,1.20
2023-01-09T12:04:15.185Z,0.30
2023-01-09T12:06:41.299Z,0.60
2023-01-09T12:09:07.446Z,0.20
2023-01-09T12:11:33.679Z,0.40
2023-01-09T12:13:59.848Z,0.20
2023-01-09T12:16:26.084Z,0.30
2023-01-09T12:18:52.263Z,0.50
2023-01-09T12:21:18.551Z,0.30
2023-01-09T12:23:44.704Z,0.40
2023-01-09T12:26:10.892Z,0.30
2023-01-09T12:28:37.034Z,0.30
2023-01-09T12:31:03.173Z,0.50
2023-01-09T12:33:29.280Z,0.32
2023-01-09T12:35:55.465Z,0.40
2023-01-09T12:38:21.567Z,0.38
2023-01-09T12:40:47.738Z,0.40
2023-01-09T12:43:13.863Z,0.30
2023-01-09T12:45:40.056Z,0.30
2023-01-09T12:48:06.206Z,0.32
2023-01-09T12:50:32.349Z,0.32
2023-01-09T12:52:58.457Z,0.60
2023-01-09T12:55:24.605Z,0.30
2023-01-09T12:57:50.830Z,0.40
2023-01-09T13:00:16.992Z,0.43
2023-01-09T13:02:43.105Z,0.35
2023-01-09T13:05:09.290Z,0.45
2023-01-09T13:07:35.402Z,0.30
2023-01-09T13:10:01.509Z,0.30
2023-01-09T13:12:27.636Z,0.30
2023-01-09T13:14:53.762Z,0.40
2023-01-09T13:17:19.907Z,0.50
2023-01-09T13:19:46.046Z,0.30
2023-01-09T13:22:14.489Z,0.52
2023-01-09T13:24:40.836Z,0.45
2023-01-09T13:27:07.003Z,0.40
2023-01-09T13:29:33.165Z,0.50
2023-01-09T13:31:59.416Z,0.40
2023-01-09T13:34:25.588Z,0.40
2023-01-09T13:36:51.786Z,0.50
2023-01-09T13:39:17.943Z,0.43
2023-01-09T13:41:45.668Z,0.22
2023-01-09T13:44:12.032Z,0.38
2023-01-09T13:46:38.192Z,0.52
2023-01-09T13:49:04.309Z,0.38
2023-01-09T13:51:30.432Z,0.30
2023-01-09T13:53:56.554Z,1.40
2023-01-09T13:56:24.044Z,0.43
2023-01-09T13:58:50.353Z,0.50
2023-01-09T14:01:16.560Z,0.43
2023-01-09T14:03:42.735Z,0.40
2023-01-09T14:06:08.870Z,0.65
2023-01-09T14:08:35.131Z,0.40
2023-01-09T14:11:01.619Z,0.30
2023-01-09T14:13:28.205Z,0.50
2023-01-09T14:15:54.594Z,0.50
2023-01-09T14:18:21.178Z,0.30
2023-01-09T14:20:47.658Z,0.40
2023-01-09T14:23:31.304Z,0.35
2023-01-09T14:26:00.443Z,0.30
2023-01-09T14:28:26.730Z,0.40
2023-01-09T14:30:53.108Z,0.40
2023-01-09T14:33:19.478Z,0.30
2023-01-09T14:35:45.704Z,0.30
2023-01-09T14:38:12.115Z,0.30
2023-01-09T14:40:38.373Z,0.40
2023-01-09T14:43:04.815Z,0.40
2023-01-09T14:45:31.464Z,0.32
2023-01-09T14:47:57.831Z,0.22
2023-01-09T14:50:24.228Z,0.60
2023-01-09T14:52:50.597Z,0.32
2023-01-09T14:55:17.039Z,0.30
2023-01-09T14:57:43.215Z,0.30
2023-01-09T15:00:09.551Z,0.30
2023-01-09T15:02:35.933Z,0.30
2023-01-09T15:05:02.189Z,0.30
2023-01-09T15:07:28.377Z,0.22
2023-01-09T15:09:55.711Z,0.32
2023-01-09T15:12:21.889Z,0.30
2023-01-09T15:14:48.082Z,0.30
2023-01-09T15:17:14.296Z,0.40
2023-01-09T15:19:40.725Z,0.40
2023-01-09T15:22:07.213Z,0.30
2023-01-09T15:24:33.662Z,0.30
2023-01-09T15:27:01.912Z,0.47
2023-01-09T15:29:28.305Z,0.30
2023-01-09T15:31:54.921Z,0.55
2023-01-09T15:34:21.528Z,0.45
2023-01-09T15:36:48.064Z,0.30
2023-01-09T15:39:14.494Z,0.43
2023-01-09T15:41:41.124Z,0.40
2023-01-09T15:44:07.538Z,0.25
2023-01-09T15:46:33.911Z,0.30
2023-01-09T15:49:00.351Z,0.35
2023-01-09T15:51:26.781Z,0.38
2023-01-09T15:53:53.221Z,0.40
2023-01-09T15:56:19.731Z,0.50
2023-01-09T15:58:45.874Z,0.30
2023-01-09T16:01:12.068Z,0.40
2023-01-09T16:03:38.521Z,0.50
2023-01-09T16:06:05.893Z,0.30
2023-01-09T16:08:32.430Z,0.35
2023-01-09T16:10:58.598Z,0.20
2023-01-09T16:13:24.746Z,0.20
2023-01-09T16:15:52.287Z,0.20
2023-01-09T16:18:18.468Z,0.28
2023-01-09T16:20:44.619Z,0.45
2023-01-09T16:23:10.760Z,0.30
2023-01-09T16:25:36.912Z,0.32
2023-01-09T16:28:03.041Z,0.25
2023-01-09T16:30:30.335Z,0.30
2023-01-09T16:32:56.431Z,0.20
2023-01-09T16:35:23.088Z,0.28
2023-01-09T16:37:49.256Z,0.40
2023-01-09T16:40:15.631Z,0.20
2023-01-09T16:42:42.308Z,0.13
2023-01-09T16:45:09.000Z,0.40
2023-01-09T16:47:35.497Z,0.30
2023-01-09T16:50:01.783Z,0.20
2023-01-09T16:52:28.291Z,0.32
2023-01-09T16:54:54.854Z,0.45
2023-01-09T16:57:21.165Z,0.50
2023-01-09T16:59:47.707Z,0.40
2023-01-09T17:02:14.143Z,0.40
2023-01-09T17:04:40.546Z,0.20
2023-01-09T17:07:06.881Z,0.40
2023-01-09T17:09:33.093Z,0.40
2023-01-09T17:11:59.530Z,0.30
2023-01-09T17:14:28.112Z,0.30
2023-01-09T17:16:54.635Z,1.75
2023-01-09T17:19:21.282Z,0.32
2023-01-09T17:21:47.752Z,0.30
2023-01-09T17:24:14.120Z,0.30
2023-01-09T17:26:40.491Z,0.20
2023-01-09T17:29:06.829Z,0.60
2023-01-09T17:31:33.290Z,0.50
2023-01-09T17:33:59.725Z,0.55
2023-01-09T17:36:26.095Z,0.40
2023-01-09T17:38:52.425Z,0.70
2023-01-09T17:41:18.845Z,1.08
2023-01-09T17:43:46.763Z,0.43
2023-01-09T17:46:13.413Z,0.40
2023-01-09T17:48:39.772Z,0.50
2023-01-09T17:51:06.073Z,0.38
2023-01-09T17:53:32.592Z,0.40
2023-01-09T17:55:58.920Z,0.70
2023-01-09T17:58:25.288Z,0.50
2023-01-09T18:00:51.735Z,0.60
2023-01-09T18:03:18.194Z,0.55
2023-01-09T18:05:44.479Z,0.47
2023-01-09T18:08:10.841Z,0.57
2023-01-09T18:10:37.137Z,0.40
2023-01-09T18:13:03.531Z,0.65
2023-01-09T18:15:29.893Z,0.70
2023-01-09T18:17:56.189Z,0.70
2023-01-09T18:20:22.566Z,0.80
2023-01-09T18:22:49.013Z,1.02
2023-01-09T18:25:15.364Z,0.45
2023-01-09T18:27:41.620Z,0.80
2023-01-09T18:30:07.889Z,0.52
2023-01-09T18:32:34.219Z,0.52
2023-01-09T18:35:00.710Z,1.02
2023-01-09T18:37:27.068Z,0.57
2023-01-09T18:39:54.040Z,0.35
2023-01-09T18:42:20.346Z,0.60
2023-01-09T18:44:46.772Z,0.82
2023-01-09T18:47:13.126Z,0.35
2023-01-09T18:49:39.614Z,0.70
2023-01-09T18:52:07.651Z,0.55
2023-01-09T18:54:34.229Z,0.75
2023-01-09T18:57:00.507Z,0.50
2023-01-09T18:59:26.902Z,0.30
2023-01-09T19:01:53.325Z,0.50
2023-01-09T19:04:19.630Z,0.60
2023-01-09T19:06:46.064Z,0.55
2023-01-09T19:09:12.253Z,0.50
2023-01-09T19:11:38.485Z,0.40
2023-01-09T19:14:04.717Z,0.47
2023-01-09T19:16:31.138Z,0.43
2023-01-09T19:18:57.666Z,0.50
2023-01-09T19:21:24.085Z,0.50
2023-01-09T19:23:50.531Z,0.63
2023-01-09T19:26:17.076Z,0.68
2023-01-09T19:28:43.225Z,0.40
2023-01-09T19:31:09.485Z,0.45
2023-01-09T19:33:35.606Z,0.70
2023-01-09T19:36:01.824Z,0.40
2023-01-09T19:38:27.934Z,0.40
2023-01-09T19:40:54.338Z,0.60
2023-01-09T19:43:20.689Z,0.50
2023-01-09T19:45:47.271Z,0.43
2023-01-09T19:48:13.712Z,0.40
2023-01-09T19:50:40.226Z,0.30
2023-01-09T19:53:06.884Z,0.40
2023-01-09T19:55:33.276Z,0.60
2023-01-09T19:57:59.739Z,0.50
2023-01-09T20:00:26.222Z,0.55
2023-01-09T20:02:52.678Z,0.47
2023-01-09T20:05:19.959Z,0.40
2023-01-09T20:07:46.381Z,0.30
2023-01-09T20:10:12.861Z,0.50
2023-01-09T20:12:39.305Z,0.57
2023-01-09T20:15:05.806Z,0.50
2023-01-09T20:17:32.291Z,0.55
2023-01-09T20:19:58.679Z,0.50
2023-01-09T20:22:25.166Z,0.40
2023-01-09T20:24:51.540Z,0.47
2023-01-09T20:27:18.027Z,0.47
2023-01-09T20:29:44.488Z,0.60
2023-01-09T20:32:11.018Z,0.40
2023-01-09T20:34:37.450Z,0.50
2023-01-09T20:37:04.069Z,0.60
2023-01-09T20:39:30.558Z,0.50
2023-01-09T20:41:57.075Z,0.60
2023-01-09T20:44:23.495Z,0.55
2023-01-09T20:46:49.976Z,0.30
2023-01-09T20:49:16.394Z,0.47
2023-01-09T20:51:42.865Z,0.60
2023-01-09T20:54:09.302Z,0.40
2023-01-09T20:56:35.743Z,0.50
2023-01-09T20:59:02.459Z,0.43
2023-01-09T21:01:29.027Z,0.30
2023-01-09T21:03:55.797Z,0.30
2023-01-09T21:06:22.283Z,0.50
2023-01-09T21:08:48.846Z,0.45
2023-01-09T21:11:15.159Z,0.40
2023-01-09T21:13:41.570Z,0.30
2023-01-09T21:16:10.661Z,0.50
2023-01-09T21:18:36.970Z,0.60
2023-01-09T21:21:03.309Z,0.60
2023-01-09T21:23:30.357Z,0.30
2023-01-09T21:25:57.235Z,0.43
2023-01-09T21:28:23.520Z,0.55
2023-01-09T21:30:49.765Z,0.40
2023-01-09T21:33:15.913Z,0.43
2023-01-09T21:35:42.095Z,0.35
2023-01-09T21:38:08.421Z,0.30
2023-01-09T21:40:34.610Z,0.40
2023-01-09T21:43:01.065Z,0.50
2023-01-09T21:45:27.496Z,0.30
2023-01-09T21:47:53.751Z,0.50
2023-01-09T21:50:20.043Z,0.50
2023-01-09T21:52:46.521Z,0.40
2023-01-09T21:55:12.756Z,0.50
2023-01-09T21:57:38.937Z,0.40
2023-01-09T22:00:05.408Z,0.40
2023-01-09T22:02:31.793Z,0.47
2023-01-09T22:04:58.050Z,0.68
2023-01-09T22:07:25.605Z,0.40
2023-01-09T22:09:51.925Z,0.40
2023-01-09T22:12:18.477Z,0.40
2023-01-09T22:14:44.902Z,0.40
2023-01-09T22:17:11.091Z,0.60
2023-01-09T22:19:37.728Z,0.40
2023-01-09T22:22:04.295Z,0.50
2023-01-09T22:24:30.572Z,0.40
2023-01-09T22:26:56.916Z,0.40
2023-01-09T22:29:23.085Z,0.30
2023-01-09T22:31:49.491Z,0.38
2023-01-09T22:34:15.639Z,0.50
2023-01-09T22:36:41.825Z,0.45
2023-01-09T22:39:08.167Z,0.30
2023-01-09T22:41:34.499Z,0.30
2023-01-09T22:44:00.668Z,0.60
2023-01-09T22:46:27.032Z,0.20
2023-01-09T22:48:53.293Z,0.40
2023-01-09T22:51:19.614Z,0.40
2023-01-09T22:53:45.926Z,0.45
2023-01-09T22:56:12.153Z,0.70
2023-01-09T22:58:38.538Z,0.40
2023-01-09T23:01:05.029Z,0.45
2023-01-09T23:03:31.712Z,0.40
2023-01-09T23:05:57.854Z,0.30
2023-01-09T23:08:24.079Z,0.35
2023-01-09T23:10:50.591Z,0.30
2023-01-09T23:13:17.060Z,0.40
2023-01-09T23:15:43.465Z,0.40
2023-01-09T23:18:09.719Z,0.40
2023-01-09T23:20:35.872Z,0.38
2023-01-09T23:23:02.031Z,0.50
2023-01-09T23:25:28.269Z,0.50
2023-01-09T23:27:54.520Z,0.30
2023-01-09T23:30:20.724Z,0.40
2023-01-09T23:32:47.132Z,0.55
2023-01-09T23:35:13.363Z,0.60
2023-01-09T23:37:39.533Z,0.60
2023-01-09T23:40:05.884Z,0.47
2023-01-09T23:42:32.036Z,0.47
2023-01-09T23:44:58.242Z,0.50
2023-01-09T23:47:24.514Z,0.73
2023-01-09T23:49:50.655Z,0.55
2023-01-09T23:52:16.841Z,0.70
2023-01-09T23:54:43.044Z,0.70
2023-01-09T23:57:09.281Z,0.50
2023-01-09T23:59:35.421Z,0.60
